Aviation Digital Data Service (ADDS)

Output produced by METARs form (0118 UTC 20 January 2022)
found at http://www.aviationweather.gov/metar/data/
 
METAR text: EHKD 200055Z AUTO 31016KT 280V360 9999 FEW033 SCT039 BKN050 06/02 Q1023 BLU
Conditions at: EHKD (DE KOOY (NAVY) , NL) observed 0055 UTC 20 January 2022
Temperature: 6.0°C (43°F)
Dewpoint: 2.0°C (36°F) [RH = 75%]
Pressure (altimeter): 30.21 inches Hg (1023.0 mb)
Winds: from the NW (310 degrees) at 18 MPH (16 knots; 8.2 m/s)
Visibility: 6 or more miles (10+ km)
Ceiling: 5000 feet AGL
Clouds: few clouds at 3300 feet AGL
scattered clouds at 3900 feet AGL
broken clouds at 5000 feet AGL
Weather: no significant weather observed at this time

METAR text: EHKD 200027Z AUTO 31016KT 270V340 9999 SCT019 BKN023 BKN053 06/02 Q1022 WHT
Conditions at: EHKD (DE KOOY (NAVY) , NL) observed 0027 UTC 20 January 2022
Temperature: 6.0°C (43°F)
Dewpoint: 2.0°C (36°F) [RH = 75%]
Pressure (altimeter): 30.18 inches Hg (1022.0 mb)
Winds: from the NW (310 degrees) at 18 MPH (16 knots; 8.2 m/s)
Visibility: 6 or more miles (10+ km)
Ceiling: 2300 feet AGL
Clouds: scattered clouds at 1900 feet AGL
broken clouds at 2300 feet AGL
broken clouds at 5300 feet AGL
Weather: no significant weather observed at this time

METAR text: EHKD 200025Z AUTO 31016KT 270V360 9999 FEW019 SCT023 BKN064 06/02 Q1022 WHT
Conditions at: EHKD (DE KOOY (NAVY) , NL) observed 0025 UTC 20 January 2022
Temperature: 6.0°C (43°F)
Dewpoint: 2.0°C (36°F) [RH = 75%]
Pressure (altimeter): 30.18 inches Hg (1022.0 mb)
Winds: from the NW (310 degrees) at 18 MPH (16 knots; 8.2 m/s)
Visibility: 6 or more miles (10+ km)
Ceiling: 6400 feet AGL
Clouds: few clouds at 1900 feet AGL
scattered clouds at 2300 feet AGL
broken clouds at 6400 feet AGL
Weather: no significant weather observed at this time

Forecast for: EHKD (DE KOOY (NAVY) , NL)
Text: TAF EHKD 191742Z 1918/2006 31012G27KT 9999 SCT030
Forecast period: 1800 UTC 19 January 2022 to 0100 UTC 20 January 2022
Forecast type: FROM: standard forecast or significant change
Winds: from the NW (310 degrees) at 14 MPH (12 knots; 6.2 m/s)
gusting to 31 MPH (27 knots; 13.9 m/s)
Visibility: 6 or more miles (10+ km)
Ceiling: at least 12,000 feet AGL
Clouds: scattered clouds at 3000 feet AGL
Weather: no significant weather forecast for this period
Text: PROB40
Forecast period: 0100 to 0400 UTC 20 January 2022
Forecast type: TEMPORARY: The following changes expected for less than half the time period
Visibility: 2.80 miles (4.51 km)
Ceiling: at least 12,000 feet AGL
Clouds: few clouds at 1200 feet AGL
scattered clouds at 1500 feet AGL
Weather: RA  (moderate rain)
Text: TEMPO 2001/2004 4500 RA FEW012 SCT015
Forecast period: 0100 to 0600 UTC 20 January 2022
Forecast type: BECOMING: Conditions expected to become as follows by 0300 UTC 20 January 2022
Winds: from the NNW (340 degrees) at 23 MPH (20 knots; 10.3 m/s)
gusting to 38 MPH (33 knots; 17.0 m/s)
Visibility: 6 or more miles (10+ km)
Ceiling: at least 12,000 feet AGL
Clouds: scattered clouds at 3000 feet AGL
Weather: no significant weather forecast for this period